Flight Track Log - Related Links

Times and Time Zones

All times are in EDT time to prevent confusion due to time zone crossing. See the FLG3492 flight status page for this flight to view local times or setup timezone preferences in your user account.

Time Position Orientation Groundspeed Altitude Reporting Facility
EDT Latitude Longitude Course Direction KTS MPH feet Rate Location/Type
Fri 06:37:07 AM 38.8000 -77.0333 90° East 168 193 2,100  Level Potomac TRACON
Fri 06:38:07 AM 38.7667 -76.9833 131° Southeast 261 300 4,400 2,750 Climbing Potomac TRACON
Fri 06:39:00 AM 38.9437 -76.6524 67° East  Level FlightAware Approximate
Fri 06:39:07 AM 38.8000 -76.8667 70° East 299 344 7,600  Level Potomac TRACON
Fri 06:40:00 AM 38.9739 -76.5544 72° East  Level FlightAware Approximate
Fri 06:40:08 AM 38.8367 -76.7856 60° Northeast 314 361 10,400  Level Washington Center
Fri 06:41:00 AM 38.9975 -76.4533 74° East  Level FlightAware Approximate
Fri 06:41:01 AM 38.8833 -76.6833 60° Northeast 363 418 11,700  Level Potomac TRACON
Fri 06:42:00 AM 39.0167 -76.3512 90° East  Level FlightAware Approximate
Fri 06:43:05 AM 38.9958 -76.4436 59° Northeast 372 428 16,400  Level Washington Center
Fri 06:44:06 AM 39.0281 -76.3050 73° East 384 442 17,000 295 Climbing Washington Center
Fri 06:45:07 AM 39.0536 -76.1956 73° East 393 452 17,000  Level Washington Center
Fri 06:46:08 AM 39.0958 -76.0408 71° East 398 458 17,000  Level Washington Center
Fri 06:47:08 AM 39.1297 -75.9047 72° East 398 458 17,000  Level Washington Center
Fri 06:48:07 AM 39.1653 -75.7656 72° East 398 458 17,000  Level Washington Center
Fri 06:49:08 AM 39.1989 -75.6317 72° East 398 458 17,000  Level Washington Center
Fri 06:50:07 AM 39.2592 -75.5031 59° Northeast 403 464 17,000  Level Washington Center
Fri 06:52:03 AM 39.3778 -75.2589 58° Northeast 400 460 17,000  Level New York Center
Fri 06:53:04 AM 39.4414 -75.1206 59° Northeast 405 466 17,000  Level New York Center
Fri 06:54:03 AM 39.5003 -74.9922 59° Northeast 410 472 17,000  Level New York Center
Fri 06:55:03 AM 39.5611 -74.8639 58° Northeast 410 472 17,000  Level New York Center
Fri 06:56:05 AM 39.6128 -74.7483 60° Northeast 410 472 17,000  Level New York Center
Fri 06:57:05 AM 39.6803 -74.6064 58° Northeast 418 481 17,000  Level New York Center
Fri 06:58:03 AM 39.7386 -74.4775 59° Northeast 413 475 17,000 -254 Level New York Center
Fri 06:59:03 AM 39.7967 -74.3481 60° Northeast 413 475 16,500 -1,041 Descending New York Center
Fri 07:00:04 AM 39.8544 -74.2267 58° Northeast 418 481 14,900 -1,623 Descending New York Center
Fri 07:01:05 AM 39.9103 -74.1022 60° Northeast 412 474 13,200 -1,664 Descending New York Center
Fri 07:02:03 AM 39.9842 -73.9919 49° Northeast 392 451 11,600 -1,613 Descending New York Center
Fri 07:03:04 AM 40.0650 -73.9361 28° Northeast 342 394 10,000 -1,700 Descending New York Center
Fri 07:04:03 AM 40.1350 -73.8903 27° Northeast 308 354 8,200 -2,000 Descending New York Center
Fri 07:05:01 AM 40.2167 -73.8333 28° Northeast 293 337 6,100 -1,966 Descending New York TRACON
Fri 07:06:02 AM 40.2833 -73.8667 339° North 271 312 4,300 -1,500 Descending New York TRACON
Fri 07:07:05 AM 40.3556 -73.9031 339° North 256 295 3,000 -655 Descending New York Center
Fri 07:08:01 AM 40.4167 -73.9333 339° North 263 303 3,000  Level New York TRACON
Fri 07:09:01 AM 40.4833 -73.9667 339° North 258 297 3,000 -104 Level New York TRACON
Fri 07:09:56 AM 40.5500 -73.9667 360° North 259 298 2,800 -826 Descending New York TRACON
Fri 07:10:50 AM 40.5833 -73.9167 49° Northeast 225 259 1,500 -1,444 Descending New York TRACON

Login

Don't have an account? Register now (free) for customized features, flight alerts, and more!